Map

Track Data

SID SEASON NUMBER BASIN SUBBASIN NAME ISO_TIME NATURE LAT LON WMO_WIND WMO_PRES WMO_AGENCY TRACK_TYPE DIST2LAND LANDFALL IFLAG USA_AGENCY USA_ATCF_ID USA_LAT USA_LON USA_RECORD USA_STATUS USA_WIND USA_PRES USA_SSHS USA_R34_NE USA_R34_SE USA_R34_SW USA_R34_NW USA_R50_NE USA_R50_SE USA_R50_SW USA_R50_NW USA_R64_NE USA_R64_SE USA_R64_SW USA_R64_NW USA_POCI USA_ROCI USA_RMW USA_EYE TOKYO_LAT TOKYO_LON TOKYO_GRADE TOKYO_WIND TOKYO_PRES TOKYO_R50_DIR TOKYO_R50_LONG TOKYO_R50_SHORT TOKYO_R30_DIR TOKYO_R30_LONG TOKYO_R30_SHORT TOKYO_LAND CMA_LAT CMA_LON CMA_CAT CMA_WIND CMA_PRES HKO_LAT HKO_LON HKO_CAT HKO_WIND HKO_PRES NEWDELHI_LAT NEWDELHI_LON NEWDELHI_GRADE NEWDELHI_WIND NEWDELHI_PRES NEWDELHI_CI NEWDELHI_DP NEWDELHI_POCI REUNION_LAT REUNION_LON REUNION_TYPE REUNION_WIND REUNION_PRES REUNION_TNUM REUNION_CI REUNION_RMW REUNION_R34_NE REUNION_R34_SE REUNION_R34_SW REUNION_R34_NW REUNION_R50_NE REUNION_R50_SE REUNION_R50_SW REUNION_R50_NW REUNION_R64_NE REUNION_R64_SE REUNION_R64_SW REUNION_R64_NW BOM_LAT BOM_LON BOM_TYPE BOM_WIND BOM_PRES BOM_TNUM BOM_CI BOM_RMW BOM_R34_NE BOM_R34_SE BOM_R34_SW BOM_R34_NW BOM_R50_NE BOM_R50_SE BOM_R50_SW BOM_R50_NW BOM_R64_NE BOM_R64_SE BOM_R64_SW BOM_R64_NW BOM_ROCI BOM_POCI BOM_EYE BOM_POS_METHOD BOM_PRES_METHOD NADI_LAT NADI_LON NADI_CAT NADI_WIND NADI_PRES WELLINGTON_LAT WELLINGTON_LON WELLINGTON_WIND WELLINGTON_PRES DS824_LAT DS824_LON DS824_STAGE DS824_WIND DS824_PRES TD9636_LAT TD9636_LON TD9636_STAGE TD9636_WIND TD9636_PRES TD9635_LAT TD9635_LON TD9635_WIND TD9635_PRES TD9635_ROCI NEUMANN_LAT NEUMANN_LON NEUMANN_CLASS NEUMANN_WIND NEUMANN_PRES MLC_LAT MLC_LON MLC_CLASS MLC_WIND MLC_PRES USA_GUST BOM_GUST BOM_GUST_PER REUNION_GUST REUNION_GUST_PER USA_SEAHGT USA_SEARAD_NE USA_SEARAD_SE USA_SEARAD_SW USA_SEARAD_NW STORM_SPEED STORM_DIR
2003271N18275 2003 79 NA CS LARRY 2003-09-27 18:00:00 DS 18.5000 -84.7000 15 1009 hurdat_atl main 290 290 O_____________ hurdat_atl AL172003 18.5000 -84.7000 LO 15 1009 -3 1012 150 30 2 319
2003271N18275 2003 79 NA CS LARRY 2003-09-27 21:00:00 DS 18.5900 -84.7875 main 291 277 P_____________ AL172003 18.5900 -84.7875 LO 15 1009 -3 1012 150 30 3 316
2003271N18275 2003 79 NA CS LARRY 2003-09-28 00:00:00 DS 18.7000 -84.9000 15 1009 hurdat_atl main 277 253 O_____________ hurdat_atl AL172003 18.7000 -84.9000 LO 15 1009 -3 1012 150 30 4 314
2003271N18275 2003 79 NA CS LARRY 2003-09-28 03:00:00 DS 18.8424 -85.0625 main 253 227 P_____________ AL172003 18.8424 -85.0625 LO 17 1008 -3 1012 150 35 5 308
2003271N18275 2003 79 NA CS LARRY 2003-09-28 06:00:00 DS 19.0000 -85.3000 20 1008 hurdat_atl main 227 194 O_____________ hurdat_atl AL172003 19.0000 -85.3000 LO 20 1008 -3 1012 150 40 6 300
2003271N18275 2003 79 NA CS LARRY 2003-09-28 09:00:00 DS 19.1424 -85.6126 main 194 148 P_____________ AL172003 19.1424 -85.6126 LO 20 1008 -3 1011 150 40 7 294
2003271N18275 2003 79 NA CS LARRY 2003-09-28 12:00:00 DS 19.3000 -86.0000 20 1008 hurdat_atl main 148 104 O_____________ hurdat_atl AL172003 19.3000 -86.0000 LO 20 1008 -3 1010 150 40 9 294
2003271N18275 2003 79 NA CS LARRY 2003-09-28 15:00:00 DS 19.5001 -86.4574 main 94 56 P_____________ AL172003 19.5001 -86.4574 LO 20 1008 -3 1009 162 40 9 295
2003271N18275 2003 79 NA CS LARRY 2003-09-28 18:00:00 DS 19.7000 -86.9000 20 1008 hurdat_atl main 56 31 O_____________ hurdat_atl AL172003 19.7000 -86.9000 LO 20 1008 -3 1008 175 40 8 297
2003271N18275 2003 79 NA CS LARRY 2003-09-28 21:00:00 DS 19.8573 -87.2152 main 31 0 P_____________ AL172003 19.8573 -87.2152 LO 20 1007 -3 6 298
2003271N18275 2003 79 NA CS LARRY 2003-09-29 00:00:00 DS 20.0000 -87.5000 20 1007 hurdat_atl main 0 0 O_____________ hurdat_atl AL172003 20.0000 -87.5000 LO 20 1007 -3 7 296
2003271N18275 2003 79 NA NA LARRY 2003-09-29 03:00:00 DS 20.1500 -87.8425 main 0 0 P_____________ AL172003 20.1500 -87.8425 LO 20 1007 -3 7 295
2003271N18275 2003 79 NA NA LARRY 2003-09-29 06:00:00 DS 20.3000 -88.2000 20 1007 hurdat_atl main 0 0 O_____________ hurdat_atl AL172003 20.3000 -88.2000 LO 20 1007 -3 1010 175 60 7 294
2003271N18275 2003 79 NA NA LARRY 2003-09-29 09:00:00 DS 20.4424 -88.5501 main 0 0 P_____________ AL172003 20.4424 -88.5501 LO 20 1007 -3 1010 175 60 7 295
2003271N18275 2003 79 NA NA LARRY 2003-09-29 12:00:00 DS 20.6000 -88.9000 20 1007 hurdat_atl main 0 0 O_____________ hurdat_atl AL172003 20.6000 -88.9000 LO 20 1007 -3 1010 175 60 7 300
2003271N18275 2003 79 NA NA LARRY 2003-09-29 15:00:00 DS 20.8073 -89.2350 main 0 0 P_____________ AL172003 20.8073 -89.2350 LO 20 1007 -3 1010 175 60 8 301
2003271N18275 2003 79 NA NA LARRY 2003-09-29 18:00:00 DS 21.0000 -89.6000 20 1007 hurdat_atl main 0 0 O_____________ hurdat_atl AL172003 21.0000 -89.6000 LO 20 1007 -3 1010 175 60 8 293
2003271N18275 2003 79 NA NA LARRY 2003-09-29 21:00:00 DS 21.1149 -90.0277 main 0 0 P_____________ AL172003 21.1149 -90.0277 LO 22 1007 -3 1010 175 60 9 283
2003271N18275 2003 79 NA GM LARRY 2003-09-30 00:00:00 ET 21.2000 -90.5000 25 1007 hurdat_atl main 23 23 O_____________ hurdat_atl AL172003 21.2000 -90.5000 EX 25 1007 -4 1010 175 60 10 283
2003271N18275 2003 79 NA GM LARRY 2003-09-30 03:00:00 ET 21.3226 -91.0223 main 75 75 P_____________ AL172003 21.3226 -91.0223 EX 25 1007 -4 1010 175 60 10 282
2003271N18275 2003 79 NA GM LARRY 2003-09-30 06:00:00 ET 21.4000 -91.5000 25 1007 hurdat_atl main 128 128 O_____________ hurdat_atl AL172003 21.4000 -91.5000 EX 25 1007 -4 1010 175 60 8 274
2003271N18275 2003 79 NA GM LARRY 2003-09-30 09:00:00 ET 21.3723 -91.8452 main 158 158 P_____________ AL172003 21.3723 -91.8452 EX 27 1007 -4 1011 175 60 6 260
2003271N18275 2003 79 NA GM LARRY 2003-09-30 12:00:00 ET 21.3000 -92.1000 30 1007 hurdat_atl main 185 185 O_____________ hurdat_atl AL172003 21.3000 -92.1000 EX 30 1007 -4 1012 175 60 5 256
2003271N18275 2003 79 NA GM LARRY 2003-09-30 15:00:00 ET 21.2649 -92.3149 main 204 204 P_____________ AL172003 21.2649 -92.3149 EX 32 1006 -4 1012 175 60 4 255
2003271N18275 2003 79 NA GM LARRY 2003-09-30 18:00:00 ET 21.2000 -92.5000 35 1006 hurdat_atl main 222 222 O_____________ hurdat_atl AL172003 21.2000 -92.5000 EX 35 1006 -4 1012 175 60 4 240
2003271N18275 2003 79 NA GM LARRY 2003-09-30 21:00:00 ET 21.0425 -92.7301 main 235 235 P_____________ AL172003 21.0425 -92.7301 EX 37 1006 -4 1013 187 55 5 231
2003271N18275 2003 79 NA GM LARRY 2003-10-01 00:00:00 ET 20.9000 -92.9000 40 1006 hurdat_atl main 253 253 O_____________ hurdat_atl AL172003 20.9000 -92.9000 EX 40 1006 -4 50 100 1014 200 50 2 226
2003271N18275 2003 79 NA GM LARRY 2003-10-01 03:00:00 ET 20.8700 -92.9224 main 253 253 P_____________ AL172003 20.8700 -92.9224 EX 40 1005 -4 50 100 1014 200 50 0 0
2003271N18275 2003 79 NA GM LARRY 2003-10-01 06:00:00 ET 20.9000 -92.9000 40 1005 hurdat_atl main 253 253 O_____________ hurdat_atl AL172003 20.9000 -92.9000 EX 40 1005 -4 50 100 1014 200 50 1 0
2003271N18275 2003 79 NA GM LARRY 2003-10-01 09:00:00 ET 20.9500 -92.9350 main 255 253 P_____________ AL172003 20.9500 -92.9350 EX 40 1004 -4 1014 200 50 1 317
2003271N18275 2003 79 NA GM LARRY 2003-10-01 12:00:00 ET 21.0000 -93.0000 40 1004 hurdat_atl main 265 265 O_____________ hurdat_atl AL172003 21.0000 -93.0000 EX 40 1004 -4 1014 200 50 2 293
2003271N18275 2003 79 NA GM LARRY 2003-10-01 15:00:00 ET 21.0150 -93.0925 main 271 271 P_____________ AL172003 21.0150 -93.0925 EX 42 1003 -4 1013 187 55 2 270
2003271N18275 2003 79 NA GM LARRY 2003-10-01 18:00:00 TS 21.0000 -93.2000 45 1003 hurdat_atl main 273 273 O_____________ hurdat_atl AL172003 21.0000 -93.2000 TS 45 1003 0 75 75 1012 175 60 2 257
2003271N18275 2003 79 NA GM LARRY 2003-10-01 21:00:00 TS 20.9650 -93.3150 main 275 264 P_____________ AL172003 20.9650 -93.3150 TS 45 1002 0 75 75 1012 175 60 2 241
2003271N18275 2003 79 NA GM LARRY 2003-10-02 00:00:00 TS 20.9000 -93.4000 45 1002 hurdat_atl main 267 256 O_____________ hurdat_atl AL172003 20.9000 -93.4000 TS 45 1002 0 75 75 1012 175 60 2 212
2003271N18275 2003 79 NA GM LARRY 2003-10-02 03:00:00 TS 20.8075 -93.4150 main 256 246 P_____________ AL172003 20.8075 -93.4150 TS 45 1001 0 75 75 1012 175 60 2 172
2003271N18275 2003 79 NA GM LARRY 2003-10-02 06:00:00 TS 20.7000 -93.4000 45 1000 hurdat_atl main 246 235 O_____________ hurdat_atl AL172003 20.7000 -93.4000 TS 45 1000 0 75 75 1012 175 60 2 167
2003271N18275 2003 79 NA GM LARRY 2003-10-02 09:00:00 TS 20.5925 -93.3850 main 235 224 P_____________ AL172003 20.5925 -93.3850 TS 45 999 0 75 75 1012 175 60 2 172
2003271N18275 2003 79 NA GM LARRY 2003-10-02 12:00:00 TS 20.5000 -93.4000 45 998 hurdat_atl main 224 214 O_____________ hurdat_atl AL172003 20.5000 -93.4000 TS 45 998 0 75 75 1012 175 60 2 204
2003271N18275 2003 79 NA GM LARRY 2003-10-02 15:00:00 TS 20.4275 -93.4700 main 218 218 P_____________ AL172003 20.4275 -93.4700 TS 47 997 0 100 75 1012 175 42 2 241
2003271N18275 2003 79 NA GM LARRY 2003-10-02 18:00:00 TS 20.4000 -93.6000 50 996 hurdat_atl main 222 222 O_____________ hurdat_atl AL172003 20.4000 -93.6000 TS 50 996 0 75 125 125 75 1012 175 25 3 276
2003271N18275 2003 79 NA GM LARRY 2003-10-02 21:00:00 TS 20.4575 -93.7924 main 241 236 P_____________ AL172003 20.4575 -93.7924 TS 52 994 0 62 112 125 62 1012 175 25 4 285
2003271N18275 2003 79 NA GM LARRY 2003-10-03 00:00:00 TS 20.5000 -94.0000 55 993 hurdat_atl main 236 217 O_____________ hurdat_atl AL172003 20.5000 -94.0000 TS 55 993 0 50 100 125 50 1012 175 25 4 264
2003271N18275 2003 79 NA GM LARRY 2003-10-03 03:00:00 TS 20.4225 -94.1651 main 217 202 P_____________ AL172003 20.4225 -94.1651 TS 52 993 0 50 100 137 50 1012 175 25 3 235
2003271N18275 2003 79 NA GM LARRY 2003-10-03 06:00:00 TS 20.3000 -94.3000 50 994 hurdat_atl main 202 187 O_____________ hurdat_atl AL172003 20.3000 -94.3000 TS 50 994 0 50 100 150 50 1012 175 25 3 226
2003271N18275 2003 79 NA GM LARRY 2003-10-03 09:00:00 TS 20.2000 -94.4075 main 187 172 P_____________ AL172003 20.2000 -94.4075 TS 50 994 0 62 100 150 100 1012 175 25 3 224
2003271N18275 2003 79 NA GM LARRY 2003-10-03 12:00:00 TS 20.1000 -94.5000 50 994 hurdat_atl main 172 158 O_____________ hurdat_atl AL172003 20.1000 -94.5000 TS 50 994 0 75 100 150 150 1012 175 25 3 228
2003271N18275 2003 79 NA GM LARRY 2003-10-03 15:00:00 TS 20.0075 -94.6301 main 158 144 P_____________ AL172003 20.0075 -94.6301 TS 50 994 0 75 87 137 137 1012 175 25 3 224
2003271N18275 2003 79 NA GM LARRY 2003-10-03 18:00:00 TS 19.9000 -94.7000 50 995 hurdat_atl main 144 133 O_____________ hurdat_atl AL172003 19.9000 -94.7000 TS 50 995 0 75 75 125 125 1012 175 25 3 183
2003271N18275 2003 79 NA GM LARRY 2003-10-03 21:00:00 TS 19.7424 -94.6524 main 123 118 P_____________ AL172003 19.7424 -94.6524 TS 50 995 0 75 75 125 125 1012 175 25 4 148
2003271N18275 2003 79 NA GM LARRY 2003-10-04 00:00:00 TS 19.6000 -94.5000 50 995 hurdat_atl main 123 123 O_____________ hurdat_atl AL172003 19.6000 -94.5000 TS 50 995 0 75 75 125 125 1012 175 25 4 118
2003271N18275 2003 79 NA GM LARRY 2003-10-04 03:00:00 TS 19.5426 -94.2500 main 124 124 P_____________ AL172003 19.5426 -94.2500 TS 50 994 0 87 87 112 112 1012 175 25 5 102
2003271N18275 2003 79 NA GM LARRY 2003-10-04 06:00:00 TS 19.5000 -94.0000 50 994 hurdat_atl main 134 123 O_____________ hurdat_atl AL172003 19.5000 -94.0000 TS 50 994 0 100 100 100 100 1012 175 25 4 107
2003271N18275 2003 79 NA GM LARRY 2003-10-04 09:00:00 TS 19.4299 -93.8625 main 123 111 P_____________ AL172003 19.4299 -93.8625 TS 50 994 0 100 80 80 100 1012 175 20 3 136
2003271N18275 2003 79 NA GM LARRY 2003-10-04 12:00:00 TS 19.3000 -93.8000 50 994 hurdat_atl main 111 89 O_____________ hurdat_atl AL172003 19.3000 -93.8000 TS 50 994 0 100 60 60 100 1012 175 15 4 172
2003271N18275 2003 79 NA GM LARRY 2003-10-04 15:00:00 TS 19.0500 -93.8001 main 78 55 P_____________ AL172003 19.0500 -93.8001 TS 50 995 0 85 55 55 85 1012 175 15 5 178
2003271N18275 2003 79 NA GM LARRY 2003-10-04 18:00:00 TS 18.8000 -93.8000 50 996 hurdat_atl main 55 44 O_____________ hurdat_atl AL172003 18.8000 -93.8000 TS 50 996 0 70 50 50 70 1012 175 15 4 167
2003271N18275 2003 79 NA GM LARRY 2003-10-04 21:00:00 TS 18.6700 -93.7075 main 44 33 P_____________ AL172003 18.6700 -93.7075 TS 50 996 0 60 50 50 60 1012 175 17 3 136
2003271N18275 2003 79 NA GM LARRY 2003-10-05 00:00:00 TS 18.6000 -93.6000 50 996 hurdat_atl main 33 33 O_____________ hurdat_atl AL172003 18.6000 -93.6000 TS 50 996 0 50 50 50 50 1012 175 20 2 127
2003271N18275 2003 79 NA GM LARRY 2003-10-05 03:00:00 TS 18.5475 -93.5338 main 22 22 P_____________ AL172003 18.5475 -93.5338 TS 50 996 0 50 50 50 50 1012 175 20 1 137
2003271N18275 2003 79 NA GM LARRY 2003-10-05 06:00:00 TS 18.5000 -93.5000 50 996 hurdat_atl main 22 11 O_____________ hurdat_atl AL172003 18.5000 -93.5000 TS 50 996 0 50 50 50 50 1012 175 20 1 164
2003271N18275 2003 79 NA GM LARRY 2003-10-05 09:00:00 TS 18.4158 -93.4982 main 11 11 P_____________ AL172003 18.4158 -93.4982 TS 50 996 0 45 45 45 45 1012 162 20 2 0
2003271N18275 2003 79 NA NA LARRY 2003-10-05 10:00:00 TS 18.4000 -93.5000 50 996 hurdat_atl main 11 11 V_____________ hurdat_atl AL172003 18.4000 -93.5000 L TS 50 996 0 43 43 43 43 1012 158 20 0 0
2003271N18275 2003 79 NA NA LARRY 2003-10-05 12:00:00 TS 18.4000 -93.5000 50 997 hurdat_atl main 11 0 O_____________ hurdat_atl AL172003 18.4000 -93.5000 TS 50 997 0 40 40 40 40 1012 150 20 1 228
2003271N18275 2003 79 NA NA LARRY 2003-10-05 15:00:00 TS 18.3298 -93.5832 main 0 0 P_____________ AL172003 18.3298 -93.5832 TS 45 998 0 40 40 1011 125 20 3 224
2003271N18275 2003 79 NA NA LARRY 2003-10-05 18:00:00 TS 18.2000 -93.7000 40 1000 hurdat_atl main 0 0 O_____________ hurdat_atl AL172003 18.2000 -93.7000 TS 40 1000 0 40 40 1010 100 20 3 213
2003271N18275 2003 79 NA NA LARRY 2003-10-05 21:00:00 TS 18.0650 -93.7575 main 0 0 P_____________ AL172003 18.0650 -93.7575 TS 37 1001 0 40 40 1010 100 30 3 197
2003271N18275 2003 79 NA NA LARRY 2003-10-06 00:00:00 TS 17.9000 -93.8000 35 1003 hurdat_atl main 0 0 O_____________ hurdat_atl AL172003 17.9000 -93.8000 TS 35 1003 0 40 40 1010 100 40 4 192
2003271N18275 2003 79 NA NA LARRY 2003-10-06 03:00:00 TS 17.7000 -93.8425 main 0 0 P_____________ AL172003 17.7000 -93.8425 TS 30 1004 -1 1009 95 40 4 193
2003271N18275 2003 79 NA NA LARRY 2003-10-06 06:00:00 TS 17.5000 -93.9000 25 1005 hurdat_atl main 0 0 O_____________ hurdat_atl AL172003 17.5000 -93.9000 TD 25 1005 -1 1009 90 40 4 202
2003271N18275 2003 79 NA NA LARRY 2003-10-06 09:00:00 TS 17.3425 -93.9925 main 0 0 P_____________ AL172003 17.3425 -93.9925 TD 22 1005 -1 4 212
2003271N18275 2003 79 NA NA LARRY 2003-10-06 12:00:00 DS 17.2000 -94.1000 20 1006 hurdat_atl main 0 0 O_____________ hurdat_atl AL172003 17.2000 -94.1000 LO 20 1006 -3 4 214
2003271N18275 2003 79 NA NA LARRY 2003-10-06 15:00:00 DS 17.0500 -94.2000 main 0 0 P_____________ AL172003 17.0500 -94.2000 LO 20 1006 -3 4 212
2003271N18275 2003 79 NA NA LARRY 2003-10-06 18:00:00 DS 16.9000 -94.3000 20 1006 hurdat_atl main 0 0 O_____________ hurdat_atl AL172003 16.9000 -94.3000 LO 20 1006 -3 4 212
2003271N18275 2003 79 NA NA LARRY 2003-10-06 21:00:00 DS 16.7500 -94.4000 main 0 0 P_____________ AL172003 16.7500 -94.4000 LO 17 1006 -3 4 212
2003271N18275 2003 79 NA NA LARRY 2003-10-07 00:00:00 DS 16.6000 -94.5000 15 1007 hurdat_atl main 0 0 O_____________ hurdat_atl AL172003 16.6000 -94.5000 LO 15 1007 -3 4 212
2003271N18275 2003 79 NA NA LARRY 2003-10-07 03:00:00 DS 16.4500 -94.5925 main 0 0 P_____________ AL172003 16.4500 -94.5925 LO 15 1007 -3 4 213
2003271N18275 2003 79 NA NA LARRY 2003-10-07 06:00:00 DS 16.3000 -94.7000 15 1007 hurdat_atl main 0 0 O_____________ hurdat_atl AL172003 16.3000 -94.7000 LO 15 1007 -3 4 218
2003271N18275 2003 79 EP MM LARRY 2003-10-07 09:00:00 DS 16.1425 -94.8425 main 11 11 P_____________ AL172003 16.1425 -94.8425 LO 15 1007 -3 4 224
2003271N18275 2003 79 EP MM LARRY 2003-10-07 12:00:00 DS 16.0000 -95.0000 15 1008 hurdat_atl main 22 22 O_____________ hurdat_atl AL172003 16.0000 -95.0000 LO 15 1008 -3 4 230
2003271N18275 2003 79 EP MM LARRY 2003-10-07 15:00:00 DS 15.8900 -95.1525 main 24 24 P_____________ AL172003 15.8900 -95.1525 LO 15 1008 -3 4 235
2003271N18275 2003 79 EP MM LARRY 2003-10-07 18:00:00 DS 15.8000 -95.3000 15 1009 hurdat_atl main 24 O_____________ hurdat_atl AL172003 15.8000 -95.3000 LO 15 1009 -3 3 238

About IBTrACS Database

This database is a web-friendly format of International Best Track Archive for Climate Stewardship (IBTrACS), a global best track data archive curated by NOAA dating back to 1842.

Updated: 2021-10-08